Rogue Valley International Medford Airport
KMFR : now visible

Airfield :











YOU CAN JOIN US ON...

 
LOGIN :

Register | Disclaimer

   EN    FR    IT 

 









Legend :    VFR   Marginal VFR   IFR   Intensive IFR   Very Intensive IFR
Visi :
Ceiling :
>= 8 km
>= 3000ft
5 to 8 km
1000 to 3000 ft
1500m to 5 km
500 to 1000 ft
800 to 1500m
200 to 500 ft
< 800m
< 200 ft
Symbols :   Thunderstorms  Fog  Heavy snow  Heavy precipitations  Wind > 20 kt







- Airport Elevation : 1335 ft
- IATA code : MFR


KMFR - Rogue Valley International Medford

CURRENT METAR :
  • 200853Z AUTO 00000KT 10SM BKN100 11/08 A3011 RMK AO2 SLP194 T01110083 53007

EXPIRED METARs :
  • 200753Z AUTO 26003KT 10SM CLR 12/08 A3010 RMK AO2 SLP189 T01220078 402060117
  • 200653Z AUTO 14004KT 10SM CLR 12/09 A3009 RMK AO2 SLP188 T01170089

TAF KMFR
Valid from the 20 at 06:00 until the 21 at 06:00 UTC


200534Z 2006/2106 00000KT P6SM SCT050
FM201300 00000KT P6SM BKN030
FM201800 VRB03KT P6SM SCT050
No reported NOTAMs for that airfield.



MET'MAP, your aeronautical weather chart ! - Copyright ORBIFLY December 2007 - Disclaimer

ORBIFLY MET'MAP TEAM :

Programming & Development : Alexandra Zaïnal
Concept & Development : Baudouin d'Aumeries
Co-Development & Prog : Marc-Olivier Méhu
Technical & hardware support : Manuel Goepfert

Contact : metmap@orbifly.com




SOURCES & CREDITS :

   NOAA       Earth
Advisory